Time,TemperatureF,DewpointF,PressureIn,WindDirection,WindDirectionDegrees,WindSpeedMPH,WindSpeedGustMPH,Humidity,HourlyPrecipIn,Conditions,Clouds,dailyrainin,SoftwareType,DateUTC
2013-08-03 09:00:00,78.5,75.3,30.10,SW,225,1.0,5.0,90,0.00,,SCT044,0.00,VWS V14.01,2013-08-03 13:00:00,
2013-08-03 09:35:00,78.5,75.3,30.10,SW,225,1.0,5.0,90,0.00,,SCT044,0.00,VWS V14.01,2013-08-03 13:35:00,
2013-08-03 09:40:00,79.5,76.3,30.11,SW,220,0.0,3.0,90,0.00,,OVC110,0.00,VWS V14.01,2013-08-03 13:40:00,
2013-08-03 09:45:00,79.6,76.4,30.11,South,174,0.0,5.0,90,0.00,,OVC110,0.00,VWS V14.01,2013-08-03 13:45:00,
2013-08-03 09:50:00,79.7,76.2,30.12,South,188,0.0,5.0,89,0.00,,OVC110,0.00,VWS V14.01,2013-08-03 13:50:00,
2013-08-03 09:55:00,79.8,76.3,30.11,South,191,0.0,5.0,89,0.00,,OVC110,0.00,VWS V14.01,2013-08-03 13:55:00,
2013-08-03 10:00:00,79.9,76.4,30.12,SSW,192,0.0,0.0,89,0.00,,SCT110,0.00,VWS V14.01,2013-08-03 14:00:00,
2013-08-03 10:05:00,80.1,76.6,30.12,SSW,192,2.0,3.0,89,0.00,,SCT110,0.00,VWS V14.01,2013-08-03 14:05:00,
2013-08-03 10:10:00,80.2,76.7,30.12,SSW,194,3.0,4.0,89,0.00,,SCT110,0.00,VWS V14.01,2013-08-03 14:10:00,
2013-08-03 10:15:00,80.4,76.5,30.12,SSW,198,0.0,6.0,88,0.00,,SCT110,0.00,VWS V14.01,2013-08-03 14:15:00,
2013-08-03 10:20:00,80.5,76.6,30.12,SW,216,0.0,6.0,88,0.00,,SCT110,0.00,VWS V14.01,2013-08-03 14:20:00,
2013-08-03 10:25:00,80.7,76.8,30.12,SSW,211,0.0,6.0,88,0.00,,SCT110,0.00,VWS V14.01,2013-08-03 14:25:00,
2013-08-03 10:30:00,80.9,77.0,30.12,SW,214,0.0,6.0,88,0.00,,SCT110,0.00,VWS V14.01,2013-08-03 14:30:00,
2013-08-03 10:35:00,81.0,77.1,30.13,SSW,210,0.0,6.0,88,0.00,,SCT110,0.00,VWS V14.01,2013-08-03 14:35:00,
2013-08-03 10:40:00,81.2,77.3,30.13,SSW,194,4.0,6.0,88,0.00,,SCT110,0.00,VWS V14.01,2013-08-03 14:40:00,
2013-08-03 10:45:00,81.4,77.2,30.13,South,183,6.0,6.0,87,0.00,,SCT110,0.00,VWS V14.01,2013-08-03 14:45:00,
2013-08-03 10:50:00,81.5,77.3,30.12,SSE,167,1.0,7.0,87,0.00,,SCT110,0.00,VWS V14.01,2013-08-03 14:50:00,
2013-08-03 10:55:00,81.7,77.5,30.13,South,174,3.0,7.0,87,0.00,,SCT110,0.00,VWS V14.01,2013-08-03 14:55:00,
2013-08-03 11:00:00,81.9,77.7,30.13,South,176,4.0,4.0,87,0.00,,SCT110,0.00,VWS V14.01,2013-08-03 15:00:00,
2013-08-03 11:05:00,82.1,77.8,30.13,South,174,0.0,7.0,87,0.00,,BKN120,0.00,VWS V14.01,2013-08-03 15:05:00,
2013-08-03 11:10:00,82.4,78.1,30.12,SE,140,4.0,7.0,87,0.00,,BKN120,0.00,VWS V14.01,2013-08-03 15:10:00,
2013-08-03 11:15:00,82.7,78.4,30.12,South,185,3.0,7.0,87,0.00,,BKN120,0.00,VWS V14.01,2013-08-03 15:15:00,
2013-08-03 11:20:00,83.0,78.4,30.12,SSW,200,0.0,7.0,86,0.00,,BKN120,0.00,VWS V14.01,2013-08-03 15:20:00,
2013-08-03 11:25:00,83.3,78.7,30.12,South,184,0.0,7.0,86,0.00,,BKN120,0.00,VWS V14.01,2013-08-03 15:25:00,
2013-08-03 11:30:00,83.5,78.2,30.12,South,178,4.0,7.0,84,0.00,,BKN120,0.00,VWS V14.01,2013-08-03 15:30:00,
2013-08-03 11:35:00,83.7,78.3,30.12,SSW,196,0.0,7.0,84,0.00,,BKN120,0.00,VWS V14.01,2013-08-03 15:35:00,
2013-08-03 11:40:00,83.9,78.6,30.12,SSE,165,0.0,7.0,84,0.00,,BKN120,0.00,VWS V14.01,2013-08-03 15:40:00,
2013-08-03 11:45:00,84.1,78.4,30.12,South,175,1.0,7.0,83,0.00,,BKN120,0.00,VWS V14.01,2013-08-03 15:45:00,
2013-08-03 11:50:00,84.3,78.6,30.12,South,184,2.0,7.0,83,0.00,,BKN120,0.00,VWS V14.01,2013-08-03 15:50:00,
2013-08-03 11:55:00,84.4,78.3,30.13,South,185,3.0,7.0,82,0.00,,BKN120,0.00,VWS V14.01,2013-08-03 15:55:00,
2013-08-03 12:00:00,84.5,78.0,30.12,South,179,3.0,6.0,81,0.00,,BKN023,0.00,VWS V14.01,2013-08-03 16:00:00,
2013-08-03 12:05:00,84.6,78.1,30.12,South,172,7.0,8.0,81,0.00,,BKN023,0.00,VWS V14.01,2013-08-03 16:05:00,
2013-08-03 12:10:00,84.8,78.3,30.12,SSW,193,3.0,8.0,81,0.00,,BKN023,0.00,VWS V14.01,2013-08-03 16:10:00,
2013-08-03 12:15:00,84.8,78.7,30.13,SSW,195,5.0,8.0,82,0.00,,BKN023,0.00,VWS V14.01,2013-08-03 16:15:00,
2013-08-03 12:20:00,84.9,78.8,30.14,SSE,168,5.0,10.0,82,0.00,,BKN023,0.00,VWS V14.01,2013-08-03 16:20:00,
2013-08-03 12:25:00,84.9,78.8,30.13,SSW,204,5.0,12.0,82,0.00,,BKN023,0.00,VWS V14.01,2013-08-03 16:25:00,
2013-08-03 12:30:00,84.9,78.8,30.13,SSE,164,1.0,12.0,82,0.00,,BKN023,0.00,VWS V14.01,2013-08-03 16:30:00,
2013-08-03 12:31:00,84.9,78.8,30.14,SSE,163,2.0,12.0,82,0.00,,BKN023,0.00,VWS V14.01,2013-08-03 16:31:00,
2013-08-03 12:36:00,84.7,77.1,30.13,South,177,9.0,16.0,78,0.00,,BKN023,0.00,VWS V14.01,2013-08-03 16:36:00,
2013-08-03 12:41:00,84.1,74.9,30.13,South,185,4.0,16.0,74,0.00,,BKN023,0.00,VWS V14.01,2013-08-03 16:41:00,
2013-08-03 12:46:00,83.7,73.7,30.13,South,185,4.0,16.0,72,0.00,,BKN023,0.00,VWS V14.01,2013-08-03 16:46:00,
2013-08-03 12:51:00,83.4,73.4,30.13,SSE,167,7.0,16.0,72,0.00,,BKN095,0.00,VWS V14.01,2013-08-03 16:51:00,
2013-08-03 12:56:00,83.1,73.6,30.13,South,189,2.0,16.0,73,0.00,,BKN095,0.00,VWS V14.01,2013-08-03 16:56:00,
2013-08-03 13:01:00,82.9,72.9,30.13,South,178,6.0,6.0,72,0.00,,BKN095,0.00,VWS V14.01,2013-08-03 17:01:00,
2013-08-03 13:06:00,82.8,73.3,30.14,SSE,168,2.0,9.0,73,0.00,,BKN095,0.00,VWS V14.01,2013-08-03 17:06:00,
2013-08-03 13:11:00,82.7,73.2,30.14,SE,144,5.0,9.0,73,0.00,,BKN095,0.00,VWS V14.01,2013-08-03 17:11:00,
2013-08-03 13:16:00,82.5,72.6,30.14,SE,143,4.0,12.0,72,0.00,,BKN110,0.00,VWS V14.01,2013-08-03 17:16:00,
2013-08-03 13:21:00,82.3,72.8,30.14,South,177,10.0,13.0,73,0.00,,BKN110,0.00,VWS V14.01,2013-08-03 17:21:00,
2013-08-03 13:26:00,82.1,73.8,30.14,South,177,7.0,13.0,76,0.00,,BKN110,0.00,VWS V14.01,2013-08-03 17:26:00,
2013-08-03 13:31:00,82.0,74.5,30.14,South,182,6.0,13.0,78,0.00,,BKN110,0.00,VWS V14.01,2013-08-03 17:31:00,
2013-08-03 13:36:00,81.9,74.8,30.12,SSW,206,5.0,13.0,79,0.00,,BKN110,0.00,VWS V14.01,2013-08-03 17:36:00,
2013-08-03 13:41:00,81.6,74.5,30.13,South,173,4.0,13.0,79,0.00,,BKN110,0.00,VWS V14.01,2013-08-03 17:41:00,
2013-08-03 13:46:00,81.4,74.6,30.13,South,188,0.0,13.0,80,0.00,,BKN110,0.00,VWS V14.01,2013-08-03 17:46:00,
2013-08-03 13:51:00,81.3,74.5,30.12,SSW,193,4.0,13.0,80,0.00,,BKN110,0.00,VWS V14.01,2013-08-03 17:51:00,
2013-08-03 13:56:00,81.2,74.1,30.13,South,191,4.0,13.0,79,0.00,,BKN110,0.00,VWS V14.01,2013-08-03 17:56:00,
2013-08-03 14:01:00,81.0,73.9,30.12,SSW,193,2.0,4.0,79,0.00,,-RA,0.00,VWS V14.01,2013-08-03 18:01:00,
2013-08-03 14:06:00,81.0,74.2,30.12,SE,145,3.0,5.0,80,0.00,,-RA,0.00,VWS V14.01,2013-08-03 18:06:00,
2013-08-03 14:11:00,81.0,74.2,30.12,SSE,161,0.0,6.0,80,0.00,,-RA,0.00,VWS V14.01,2013-08-03 18:11:00,
2013-08-03 14:16:00,80.9,73.8,30.11,SE,133,5.0,8.0,79,0.00,,-RA,0.00,VWS V14.01,2013-08-03 18:16:00,
2013-08-03 14:21:00,80.9,74.2,30.11,South,186,0.0,8.0,80,0.00,,-RA,0.00,VWS V14.01,2013-08-03 18:21:00,
2013-08-03 14:26:00,81.1,75.1,30.11,South,186,0.0,8.0,82,0.00,,-RA,0.00,VWS V14.01,2013-08-03 18:26:00,
2013-08-03 14:31:00,81.2,75.2,30.11,South,169,0.0,8.0,82,0.00,,-RA,0.00,VWS V14.01,2013-08-03 18:31:00,
2013-08-03 14:36:00,81.3,75.7,30.11,SSW,193,1.0,9.0,83,0.00,,-RA,0.00,VWS V14.01,2013-08-03 18:36:00,
2013-08-03 14:41:00,81.4,75.7,30.10,South,189,6.0,11.0,83,0.00,,-RA,0.00,VWS V14.01,2013-08-03 18:41:00,
2013-08-03 14:46:00,81.5,75.8,30.10,SSE,158,4.0,11.0,83,0.00,,-RA,0.00,VWS V14.01,2013-08-03 18:46:00,
2013-08-03 14:51:00,81.6,76.3,30.11,South,178,4.0,11.0,84,0.00,,-RA,0.00,VWS V14.01,2013-08-03 18:51:00,
2013-08-03 14:56:00,81.7,76.8,30.09,South,184,6.0,11.0,85,0.00,,-RA,0.00,VWS V14.01,2013-08-03 18:56:00,
2013-08-03 15:01:00,81.8,76.8,30.09,SSE,155,4.0,6.0,85,0.01,,CLR,0.01,VWS V14.01,2013-08-03 19:01:00,
2013-08-03 15:06:00,81.8,77.2,30.10,SSW,207,3.0,6.0,86,0.01,,CLR,0.01,VWS V14.01,2013-08-03 19:06:00,
2013-08-03 15:11:00,81.8,77.2,30.10,South,177,5.0,9.0,86,0.01,,CLR,0.01,VWS V14.01,2013-08-03 19:11:00,
2013-08-03 15:16:00,81.7,77.5,30.10,South,169,5.0,9.0,87,0.01,,CLR,0.01,VWS V14.01,2013-08-03 19:16:00,
2013-08-03 15:21:00,81.7,77.5,30.09,South,183,7.0,9.0,87,0.02,,CLR,0.02,VWS V14.01,2013-08-03 19:21:00,
2013-08-03 15:26:00,81.7,77.5,30.09,South,182,5.0,9.0,87,0.02,,CLR,0.02,VWS V14.01,2013-08-03 19:26:00,
2013-08-03 15:31:00,81.6,77.7,30.08,SSE,159,2.0,9.0,88,0.02,,CLR,0.02,VWS V14.01,2013-08-03 19:31:00,
2013-08-03 15:36:00,81.6,77.7,30.08,SSE,167,6.0,9.0,88,0.02,,CLR,0.02,VWS V14.01,2013-08-03 19:36:00,
2013-08-03 15:41:00,81.6,77.7,30.09,SSE,157,0.0,9.0,88,0.02,,CLR,0.02,VWS V14.01,2013-08-03 19:41:00,
2013-08-03 15:46:00,81.6,78.1,30.08,South,191,4.0,9.0,89,0.02,,CLR,0.02,VWS V14.01,2013-08-03 19:46:00,
2013-08-03 15:51:00,81.7,78.2,30.08,SSW,203,4.0,10.0,89,0.02,,CLR,0.02,VWS V14.01,2013-08-03 19:51:00,
2013-08-03 15:56:00,81.7,78.2,30.08,SSE,147,3.0,10.0,89,0.02,,CLR,0.02,VWS V14.01,2013-08-03 19:56:00,
2013-08-03 16:01:00,81.7,77.8,30.08,South,183,6.0,9.0,88,0.01,,CLR,0.02,VWS V14.01,2013-08-03 20:01:00,
2013-08-03 16:06:00,81.6,77.7,30.09,SSE,167,4.0,9.0,88,0.01,,CLR,0.02,VWS V14.01,2013-08-03 20:06:00,
2013-08-03 16:11:00,81.8,78.2,30.08,SE,144,6.0,9.0,89,0.01,,CLR,0.02,VWS V14.01,2013-08-03 20:11:00,
2013-08-03 16:16:00,81.8,77.9,30.08,SSE,165,4.0,10.0,88,0.01,,CLR,0.02,VWS V14.01,2013-08-03 20:16:00,
2013-08-03 16:21:00,82.0,78.1,30.07,SSE,168,5.0,11.0,88,0.01,,CLR,0.02,VWS V14.01,2013-08-03 20:21:00,
2013-08-03 16:26:00,82.0,78.1,30.08,South,180,6.0,11.0,88,0.01,,CLR,0.02,VWS V14.01,2013-08-03 20:26:00,
2013-08-03 16:31:00,82.1,77.8,30.09,SE,134,3.0,11.0,87,0.01,,CLR,0.02,VWS V14.01,2013-08-03 20:31:00,
2013-08-03 16:36:00,82.2,77.9,30.09,South,173,5.0,11.0,87,0.01,,CLR,0.02,VWS V14.01,2013-08-03 20:36:00,
2013-08-03 16:41:00,82.2,77.9,30.09,SSW,193,3.0,11.0,87,0.01,,CLR,0.02,VWS V14.01,2013-08-03 20:41:00,
2013-08-03 16:46:00,82.2,77.9,30.10,SW,223,2.0,11.0,87,0.01,,CLR,0.02,VWS V14.01,2013-08-03 20:46:00,
2013-08-03 16:51:00,82.0,76.7,30.10,South,181,7.0,15.0,84,0.01,,CLR,0.02,VWS V14.01,2013-08-03 20:51:00,
2013-08-03 16:56:00,81.5,75.5,30.11,SW,233,7.0,15.0,82,0.01,,CLR,0.02,VWS V14.01,2013-08-03 20:56:00,
2013-08-03 17:01:00,81.2,75.2,30.11,South,176,6.0,8.0,82,0.00,,BKN055,0.02,VWS V14.01,2013-08-03 21:01:00,
2013-08-03 17:06:00,81.0,75.0,30.11,SSW,201,5.0,9.0,82,0.00,,BKN055,0.02,VWS V14.01,2013-08-03 21:06:00,
2013-08-03 17:11:00,80.8,75.2,30.11,SSW,194,8.0,9.0,83,0.00,,BKN055,0.02,VWS V14.01,2013-08-03 21:11:00,
2013-08-03 17:16:00,80.6,75.0,30.10,South,188,6.0,10.0,83,0.00,,BKN055,0.02,VWS V14.01,2013-08-03 21:16:00,
2013-08-03 17:21:00,80.5,74.9,30.11,South,172,6.0,10.0,83,0.00,,BKN055,0.02,VWS V14.01,2013-08-03 21:21:00,
2013-08-03 17:26:00,80.4,75.1,30.11,SW,227,0.0,10.0,84,0.00,,BKN055,0.02,VWS V14.01,2013-08-03 21:26:00,
2013-08-03 17:31:00,80.3,75.0,30.11,WSW,240,5.0,10.0,84,0.00,,BKN055,0.02,VWS V14.01,2013-08-03 21:31:00,
2013-08-03 17:36:00,80.2,74.6,30.13,WSW,258,3.0,10.0,83,0.00,,BKN055,0.02,VWS V14.01,2013-08-03 21:36:00,
2013-08-03 17:41:00,80.0,74.0,30.13,SW,227,1.0,10.0,82,0.00,,BKN055,0.02,VWS V14.01,2013-08-03 21:41:00,
2013-08-03 17:46:00,80.0,74.0,30.14,SW,217,6.0,11.0,82,0.00,,BKN055,0.02,VWS V14.01,2013-08-03 21:46:00,
2013-08-03 17:51:00,79.8,73.8,30.14,West,260,6.0,12.0,82,0.00,,BKN055,0.02,VWS V14.01,2013-08-03 21:51:00,
2013-08-03 17:56:00,79.7,73.7,30.13,SW,224,5.0,12.0,82,0.00,,BKN055,0.02,VWS V14.01,2013-08-03 21:56:00,
2013-08-03 18:01:00,79.4,73.4,30.13,WSW,254,3.0,9.0,82,0.00,,OVC110,0.02,VWS V14.01,2013-08-03 22:01:00,
2013-08-03 18:06:00,79.2,73.2,30.13,West,268,8.0,10.0,82,0.00,,OVC110,0.02,VWS V14.01,2013-08-03 22:06:00,
2013-08-03 18:11:00,78.9,72.9,30.14,WNW,286,4.0,10.0,82,0.00,,OVC110,0.02,VWS V14.01,2013-08-03 22:11:00,
2013-08-03 18:16:00,78.6,73.4,30.15,NW,309,7.0,10.0,84,0.01,,OVC110,0.00,VWS V14.01,2013-08-03 22:16:00,
2013-08-03 18:21:00,78.2,73.3,30.14,West,268,9.0,11.0,85,0.01,,OVC110,0.03,VWS V14.01,2013-08-03 22:21:00,
2013-08-03 18:26:00,77.6,73.1,30.13,West,259,4.0,13.0,86,0.01,,OVC110,0.03,VWS V14.01,2013-08-03 22:26:00,
2013-08-03 18:31:00,77.2,73.0,30.14,West,266,1.0,13.0,87,0.02,,OVC110,0.04,VWS V14.01,2013-08-03 22:31:00,
2013-08-03 18:36:00,77.1,72.9,30.13,West,259,5.0,13.0,87,0.02,,OVC110,0.04,VWS V14.01,2013-08-03 22:36:00,
2013-08-03 18:41:00,76.9,73.1,30.13,WSW,250,4.0,13.0,88,0.03,,OVC110,0.05,VWS V14.01,2013-08-03 22:41:00,
2013-08-03 18:46:00,76.8,73.0,30.13,SW,236,3.0,13.0,88,0.03,,OVC110,0.05,VWS V14.01,2013-08-03 22:46:00,
2013-08-03 18:51:00,76.6,73.1,30.12,WSW,248,3.0,13.0,89,0.04,,OVC110,0.06,VWS V14.01,2013-08-03 22:51:00,
2013-08-03 18:56:00,76.5,73.0,30.12,SW,227,5.0,13.0,89,0.04,,OVC110,0.06,VWS V14.01,2013-08-03 22:56:00,
2013-08-03 19:01:00,76.4,73.2,30.12,SW,231,2.0,7.0,90,0.04,,-RA,0.06,VWS V14.01,2013-08-03 23:01:00,
2013-08-03 19:06:00,76.4,73.2,30.11,SW,216,0.0,7.0,90,0.05,,-RA,0.07,VWS V14.01,2013-08-03 23:06:00,
2013-08-03 19:11:00,76.3,73.2,30.11,WSW,238,6.0,7.0,90,0.05,,-RA,0.07,VWS V14.01,2013-08-03 23:11:00,
2013-08-03 19:16:00,76.2,73.1,30.11,WSW,242,5.0,8.0,90,0.05,,-RA,0.07,VWS V14.01,2013-08-03 23:16:00,
2013-08-03 19:21:00,76.1,73.0,30.11,SW,236,2.0,8.0,90,0.05,,-RA,0.07,VWS V14.01,2013-08-03 23:21:00,
2013-08-03 19:26:00,75.9,73.1,30.11,WSW,244,3.0,8.0,91,0.05,,-RA,0.07,VWS V14.01,2013-08-03 23:26:00,
2013-08-03 19:31:00,75.9,73.1,30.11,WSW,243,1.0,8.0,91,0.05,,-RA,0.07,VWS V14.01,2013-08-03 23:31:00,
2013-08-03 19:36:00,75.9,73.1,30.12,WSW,258,4.0,8.0,91,0.05,,-RA,0.07,VWS V14.01,2013-08-03 23:36:00,
2013-08-03 19:41:00,75.8,73.0,30.12,SW,233,4.0,8.0,91,0.05,,-RA,0.07,VWS V14.01,2013-08-03 23:41:00,
2013-08-03 19:46:00,75.8,73.0,30.12,West,266,0.0,8.0,91,0.05,,-RA,0.07,VWS V14.01,2013-08-03 23:46:00,
2013-08-03 19:51:00,75.8,73.0,30.12,WSW,251,0.0,8.0,91,0.05,,-RA,0.07,VWS V14.01,2013-08-03 23:51:00,
2013-08-03 19:55:00,75.8,73.0,30.11,WSW,251,0.0,8.0,91,0.05,,-RA,0.07,VWS V14.01,2013-08-03 23:55:00,
2013-08-03 20:01:00,75.7,72.9,30.12,WSW,252,0.0,0.0,91,0.01,,SCT120,0.07,VWS V14.01,2013-08-04 00:01:00,
2013-08-03 20:06:00,75.7,73.2,30.12,WSW,251,0.0,4.0,92,0.01,,SCT120,0.07,VWS V14.01,2013-08-04 00:06:00,
2013-08-03 20:11:00,75.7,73.5,30.11,WSW,239,0.0,4.0,93,0.01,,SCT120,0.07,VWS V14.01,2013-08-04 00:11:00,
2013-08-03 20:16:00,75.7,73.5,30.11,WSW,238,0.0,4.0,93,0.01,,SCT120,0.07,VWS V14.01,2013-08-04 00:16:00,
2013-08-03 20:21:00,75.7,73.2,30.11,WSW,250,0.0,4.0,92,0.02,,SCT120,0.08,VWS V14.01,2013-08-04 00:21:00,
2013-08-03 20:26:00,75.7,73.2,30.12,WSW,250,0.0,4.0,92,0.02,,SCT120,0.08,VWS V14.01,2013-08-04 00:26:00,
2013-08-03 20:31:00,75.7,73.2,30.12,WSW,251,0.0,4.0,92,0.02,,SCT120,0.08,VWS V14.01,2013-08-04 00:31:00,
2013-08-03 20:36:00,75.7,73.2,30.12,WSW,251,0.0,4.0,92,0.02,,SCT120,0.08,VWS V14.01,2013-08-04 00:36:00,
2013-08-03 20:40:00,75.7,73.2,30.11,WSW,251,0.0,4.0,92,0.02,,SCT120,0.08,VWS V14.01,2013-08-04 00:40:00,
2013-08-03 20:46:00,75.7,73.2,30.11,WSW,252,0.0,4.0,92,0.02,,SCT120,0.08,VWS V14.01,2013-08-04 00:46:00,
2013-08-03 20:51:00,75.7,73.2,30.11,WSW,251,0.0,4.0,92,0.02,,SCT120,0.08,VWS V14.01,2013-08-04 00:51:00,
2013-08-03 20:56:00,75.7,73.8,30.11,SW,230,0.0,4.0,94,0.02,,SCT120,0.08,VWS V14.01,2013-08-04 00:56:00,
2013-08-03 21:01:00,75.7,73.2,30.11,WSW,251,0.0,0.0,92,0.01,,SCT120,0.08,VWS V14.01,2013-08-04 01:01:00,
2013-08-03 21:06:00,75.7,73.2,30.11,WSW,249,0.0,1.0,92,0.01,,SCT120,0.08,VWS V14.01,2013-08-04 01:06:00,
2013-08-03 21:11:00,75.7,73.2,30.11,WSW,251,0.0,1.0,92,0.01,,SCT120,0.08,VWS V14.01,2013-08-04 01:11:00,
2013-08-03 21:16:00,75.6,73.4,30.12,WSW,240,0.0,1.0,93,0.01,,SCT120,0.08,VWS V14.01,2013-08-04 01:16:00,
2013-08-03 21:21:00,75.5,73.3,30.11,WSW,239,0.0,1.0,93,0.01,,SCT120,0.08,VWS V14.01,2013-08-04 01:21:00,
2013-08-03 21:26:00,75.5,73.7,30.12,SW,235,0.0,1.0,94,0.01,,SCT120,0.08,VWS V14.01,2013-08-04 01:26:00,
2013-08-03 21:31:00,75.5,73.7,30.12,WSW,239,0.0,1.0,94,0.01,,SCT120,0.08,VWS V14.01,2013-08-04 01:31:00,
2013-08-03 21:36:00,75.5,73.0,30.11,WSW,248,0.0,1.0,92,0.01,,SCT120,0.08,VWS V14.01,2013-08-04 01:36:00,
2013-08-03 21:41:00,75.5,73.7,30.11,WSW,238,0.0,1.0,94,0.01,,SCT120,0.08,VWS V14.01,2013-08-04 01:41:00,
2013-08-03 21:46:00,75.5,73.0,30.11,WSW,252,0.0,1.0,92,0.01,,SCT120,0.08,VWS V14.01,2013-08-04 01:46:00,
2013-08-03 21:51:00,75.5,73.0,30.11,WSW,251,0.0,1.0,92,0.01,,SCT120,0.08,VWS V14.01,2013-08-04 01:51:00,
2013-08-03 21:56:00,75.5,73.0,30.11,WSW,251,0.0,1.0,92,0.01,,SCT120,0.08,VWS V14.01,2013-08-04 01:56:00,
2013-08-03 22:01:00,75.4,72.9,30.11,WSW,251,0.0,0.0,92,0.00,,BKN110,0.08,VWS V14.01,2013-08-04 02:01:00,
2013-08-03 22:06:00,75.5,73.0,30.10,WSW,251,0.0,0.0,92,0.00,,BKN110,0.08,VWS V14.01,2013-08-04 02:06:00,
2013-08-03 22:11:00,75.4,72.9,30.10,WSW,247,0.0,0.0,92,0.00,,BKN110,0.08,VWS V14.01,2013-08-04 02:11:00,
2013-08-03 22:16:00,75.3,72.8,30.10,WSW,247,0.0,0.0,92,0.00,,BKN110,0.08,VWS V14.01,2013-08-04 02:16:00,
2013-08-03 22:21:00,75.3,73.1,30.10,WSW,246,0.0,0.0,93,0.00,,BKN110,0.08,VWS V14.01,2013-08-04 02:21:00,
2013-08-03 22:26:00,75.3,72.8,30.10,WSW,247,0.0,0.0,92,0.00,,BKN110,0.08,VWS V14.01,2013-08-04 02:26:00,
2013-08-03 22:31:00,75.2,72.7,30.11,WSW,245,0.0,0.0,92,0.00,,BKN110,0.08,VWS V14.01,2013-08-04 02:31:00,
2013-08-03 22:36:00,75.1,72.3,30.11,WSW,252,0.0,0.0,91,0.00,,BKN110,0.08,VWS V14.01,2013-08-04 02:36:00,
2013-08-03 22:41:00,75.0,72.2,30.11,WSW,252,0.0,0.0,91,0.00,,BKN110,0.08,VWS V14.01,2013-08-04 02:41:00,
2013-08-03 22:46:00,74.8,72.0,30.11,WSW,252,0.0,0.0,91,0.00,,BKN110,0.08,VWS V14.01,2013-08-04 02:46:00,
2013-08-03 22:51:00,74.8,72.0,30.11,WSW,252,0.0,0.0,91,0.00,,BKN110,0.08,VWS V14.01,2013-08-04 02:51:00,
2013-08-03 22:56:00,74.7,72.2,30.11,WSW,252,0.0,0.0,92,0.00,,BKN110,0.08,VWS V14.01,2013-08-04 02:56:00,
2013-08-03 23:01:00,74.7,72.2,30.12,WSW,252,0.0,0.0,92,0.00,,CLR,0.08,VWS V14.01,2013-08-04 03:01:00,
2013-08-03 23:06:00,74.7,72.2,30.11,WSW,252,0.0,0.0,92,0.00,,CLR,0.08,VWS V14.01,2013-08-04 03:06:00,
2013-08-03 23:11:00,74.8,72.3,30.12,WSW,252,0.0,0.0,92,0.00,,CLR,0.08,VWS V14.01,2013-08-04 03:11:00,
2013-08-03 23:16:00,74.8,72.3,30.12,WSW,252,0.0,0.0,92,0.00,,CLR,0.08,VWS V14.01,2013-08-04 03:16:00,
2013-08-03 23:21:00,74.9,72.4,30.13,WSW,252,0.0,0.0,92,0.00,,CLR,0.08,VWS V14.01,2013-08-04 03:21:00,
2013-08-03 23:26:00,74.9,72.4,30.12,WSW,251,0.0,3.0,92,0.00,,CLR,0.08,VWS V14.01,2013-08-04 03:26:00,
2013-08-03 23:31:00,75.1,72.6,30.12,WSW,240,0.0,4.0,92,0.00,,CLR,0.08,VWS V14.01,2013-08-04 03:31:00,
2013-08-03 23:36:00,75.1,72.6,30.12,SSW,205,3.0,4.0,92,0.00,,CLR,0.08,VWS V14.01,2013-08-04 03:36:00,
2013-08-03 23:41:00,75.2,73.0,30.12,SSW,201,0.0,4.0,93,0.00,,CLR,0.08,VWS V14.01,2013-08-04 03:41:00,
2013-08-03 23:46:00,75.3,73.1,30.11,SSW,207,0.0,4.0,93,0.00,,CLR,0.08,VWS V14.01,2013-08-04 03:46:00,
2013-08-03 23:51:00,75.4,73.2,30.11,SSW,213,2.0,5.0,93,0.00,,CLR,0.08,VWS V14.01,2013-08-04 03:51:00,
2013-08-03 23:56:00,75.5,73.3,30.11,SSW,213,4.0,5.0,93,0.00,,CLR,0.08,VWS V14.01,2013-08-04 03:56:00,